Time;durP1;ratioP1;P1;durP2;ratioP2;P2;SDS_P1;SDS_P2;PMS_P1;PMS_P2;Temp;Humidity;BMP_temperature;BMP_pressure;BME280_temperature;BME280_humidity;BME280_pressure;Samples;Min_cycle;Max_cycle;Signal;HPM_P1;HPM_P2
2021/05/05 00:02:19;;;;;;;19.85;11.55;;;;;;;3.85;72.03;100271.09;1766558;81;21177;-79
2021/05/05 00:05:29;;;;;;;13.78;7.67;;;;;;;3.82;71.93;100265.97;1766690;81;21303;-79
2021/05/05 00:08:33;;;;;;;11.55;6.42;;;;;;;3.78;72.06;100264.52;1737709;82;21371;-78
2021/05/05 00:11:40;;;;;;;17.12;8.58;;;;;;;3.76;72.07;100274.60;1767896;81;21292;-78
2021/05/05 00:14:45;;;;;;;13.32;7.60;;;;;;;3.74;72.13;100273.03;1737454;82;21355;-79
2021/05/05 00:17:51;;;;;;;14.18;8.10;;;;;;;3.71;72.14;100270.09;1763750;80;21192;-79
2021/05/05 00:20:57;;;;;;;21.75;9.45;;;;;;;3.70;72.35;100272.94;1802904;79;21874;-78
2021/05/05 00:24:01;;;;;;;34.10;12.35;;;;;;;3.66;72.28;100268.28;1802937;79;21220;-78
2021/05/05 00:27:07;;;;;;;28.47;11.63;;;;;;;3.63;72.07;100268.56;1802800;79;21827;-79
2021/05/05 00:30:15;;;;;;;36.05;12.55;;;;;;;3.63;72.12;100269.92;1803077;79;21292;-78
2021/05/05 00:33:21;;;;;;;29.35;12.05;;;;;;;3.62;72.15;100267.33;1802814;79;21347;-78
2021/05/05 00:36:26;;;;;;;31.55;9.15;;;;;;;3.61;72.21;100271.88;1801687;79;21236;-78
2021/05/05 00:39:32;;;;;;;21.45;8.45;;;;;;;3.59;72.23;100284.20;1801721;79;21327;-79
2021/05/05 00:42:38;;;;;;;18.48;8.15;;;;;;;3.51;72.05;100279.94;1801941;79;21177;-79
2021/05/05 00:45:44;;;;;;;16.42;6.80;;;;;;;3.44;72.30;100276.55;1801946;79;21307;-78
2021/05/05 00:48:51;;;;;;;15.78;6.33;;;;;;;3.37;72.50;100278.05;1803145;79;21299;-79
2021/05/05 00:51:58;;;;;;;14.23;6.40;;;;;;;3.32;72.90;100274.39;1803212;79;21228;-79
2021/05/05 00:55:05;;;;;;;18.62;7.60;;;;;;;3.27;73.36;100275.28;1801576;79;21923;-79
2021/05/05 00:58:11;;;;;;;28.15;8.63;;;;;;;3.28;73.73;100281.04;1764305;81;21218;-79
2021/05/05 01:01:17;;;;;;;29.37;9.38;;;;;;;3.29;74.01;100275.52;1734692;82;21867;-79
2021/05/05 01:04:23;;;;;;;32.65;11.45;;;;;;;3.31;74.31;100276.23;1802969;79;21272;-79
2021/05/05 01:07:30;;;;;;;32.15;10.05;;;;;;;3.33;74.45;100274.75;1802838;79;21281;-79
2021/05/05 01:10:35;;;;;;;12.55;6.15;;;;;;;3.37;74.48;100273.50;1803098;79;21157;-79
2021/05/05 01:13:41;;;;;;;14.60;6.33;;;;;;;3.37;74.32;100276.70;1800886;79;21208;-79
2021/05/05 01:16:46;;;;;;;13.62;6.08;;;;;;;3.32;74.16;100275.24;1801510;79;21271;-79
2021/05/05 01:19:54;;;;;;;13.05;5.00;;;;;;;3.34;74.10;100276.48;1799784;79;21858;-78
2021/05/05 01:23:01;;;;;;;7.30;4.12;;;;;;;3.36;73.74;100279.91;1802845;79;21288;-78
2021/05/05 01:26:07;;;;;;;7.30;3.72;;;;;;;3.35;73.22;100280.05;1764481;81;21297;-78
2021/05/05 01:29:14;;;;;;;8.25;3.72;;;;;;;3.35;72.96;100286.80;1733509;82;21375;-78
2021/05/05 01:32:20;;;;;;;10.55;4.22;;;;;;;3.33;72.74;100276.95;1802937;79;21177;-78
2021/05/05 01:35:27;;;;;;;7.05;4.37;;;;;;;3.33;72.57;100277.45;1764755;81;21209;-78
2021/05/05 01:38:34;;;;;;;7.55;4.78;;;;;;;3.33;72.48;100280.16;1734695;82;21300;-78
2021/05/05 01:41:41;;;;;;;11.88;5.70;;;;;;;3.31;72.46;100276.23;1802977;79;21284;-78
2021/05/05 01:44:48;;;;;;;14.15;6.40;;;;;;;3.27;72.49;100272.08;1801977;79;21890;-78
2021/05/05 01:47:54;;;;;;;15.63;6.97;;;;;;;3.27;72.63;100268.02;1802592;79;21228;-78
2021/05/05 01:51:01;;;;;;;14.15;5.72;;;;;;;3.27;72.61;100272.08;1803804;79;21319;-78
2021/05/05 01:54:06;;;;;;;12.73;5.78;;;;;;;3.28;72.73;100273.78;1764821;81;21831;-78
2021/05/05 01:57:39;;;;;;;9.65;5.28;;;;;;;3.29;72.74;100274.17;1733626;82;21339;-78
2021/05/05 02:00:47;;;;;;;9.15;5.00;;;;;;;3.30;72.79;100276.38;1802973;79;21815;-78
2021/05/05 02:04:00;;;;;;;9.98;4.97;;;;;;;3.28;72.86;100275.63;1801370;79;21304;-78
2021/05/05 02:07:18;;;;;;;9.55;5.50;;;;;;;3.27;72.89;100274.78;1801924;79;21268;-78
2021/05/05 02:10:26;;;;;;;10.95;5.75;;;;;;;3.24;73.02;100281.79;1764673;81;21176;-78
2021/05/05 02:13:34;;;;;;;9.33;4.30;;;;;;;3.24;73.10;100279.08;1734784;82;21834;-79
2021/05/05 02:16:41;;;;;;;11.28;4.62;;;;;;;3.23;73.29;100279.22;1802647;79;21382;-79
2021/05/05 02:19:48;;;;;;;15.75;5.00;;;;;;;3.24;73.45;100283.14;1801495;79;21871;-79
2021/05/05 02:22:54;;;;;;;12.43;4.83;;;;;;;3.25;73.52;100282.67;1763709;81;21351;-79
2021/05/05 02:26:00;;;;;;;12.05;5.03;;;;;;;3.27;73.68;100283.39;1803333;79;21886;-78
2021/05/05 02:29:07;;;;;;;9.98;5.67;;;;;;;3.29;73.77;100284.98;1802744;79;21370;-78
2021/05/05 02:32:19;;;;;;;11.53;5.60;;;;;;;3.36;73.80;100287.16;1763271;81;21181;-79
2021/05/05 02:35:25;;;;;;;17.82;5.62;;;;;;;3.50;73.86;100288.19;1802777;79;21331;-78
2021/05/05 02:38:35;;;;;;;14.03;5.50;;;;;;;3.72;73.72;100283.15;1764016;81;21197;-78
2021/05/05 02:41:41;;;;;;;;;;;;;;;3.97;73.28;100286.77;1767468;81;21348;-79
2021/05/05 02:44:48;;;;;;;13.88;5.47;;;;;;;4.26;72.45;100292.81;1770319;81;20282;-79
2021/05/05 02:47:54;;;;;;;11.93;5.60;;;;;;;4.48;71.57;100289.91;1769649;81;21304;-78
2021/05/05 02:51:00;;;;;;;19.23;5.15;;;;;;;4.70;70.75;100291.52;1770499;81;21347;-78
2021/05/05 02:54:07;;;;;;;16.27;8.75;;;;;;;4.87;69.97;100295.41;1770525;81;21189;-78
2021/05/05 02:57:12;;;;;;;15.95;7.95;;;;;;;4.99;69.45;100292.95;1770220;81;21323;-78
2021/05/05 03:00:19;;;;;;;15.80;7.35;;;;;;;5.17;69.01;100299.86;1769816;81;21209;-78
2021/05/05 03:03:25;;;;;;;16.52;7.42;;;;;;;5.34;68.34;100303.23;1734493;82;21303;-79
2021/05/05 03:06:30;;;;;;;15.68;6.33;;;;;;;5.53;67.87;100306.94;1802956;79;21169;-79
2021/05/05 03:09:36;;;;;;;15.28;4.95;;;;;;;5.70;67.14;100310.78;1803126;79;21299;-78
2021/05/05 03:12:42;;;;;;;10.90;4.50;;;;;;;5.79;66.45;100312.13;1802967;79;21292;-79
2021/05/05 03:15:48;;;;;;;11.83;6.22;;;;;;;5.79;66.06;100310.77;1802028;79;21338;-79
2021/05/05 03:18:54;;;;;;;8.85;5.20;;;;;;;5.81;65.95;100311.97;1801691;79;21251;-79
2021/05/05 03:22:01;;;;;;;12.18;4.95;;;;;;;5.87;65.84;100312.23;1760133;80;21340;-78
2021/05/05 03:25:06;;;;;;;7.58;4.45;;;;;;;5.98;65.77;100313.12;1758717;81;21304;-78
2021/05/05 03:28:12;;;;;;;8.45;4.17;;;;;;;6.15;65.76;100313.19;1760094;81;21857;-79
2021/05/05 03:31:17;;;;;;;10.88;5.20;;;;;;;6.32;65.44;100309.36;1759789;81;21384;-78
2021/05/05 03:34:22;;;;;;;35.65;14.07;;;;;;;6.48;65.36;100312.28;1759087;81;21506;-78
2021/05/05 03:37:28;;;;;;;17.67;6.95;;;;;;;6.70;65.32;100316.48;1749705;82;21806;-78
2021/05/05 03:40:34;;;;;;;12.82;6.20;;;;;;;7.00;65.68;100313.92;1750820;82;21347;-79
2021/05/05 03:43:44;;;;;;;10.20;4.87;;;;;;;7.25;65.12;100317.78;1745979;82;21697;-79
2021/05/05 03:46:50;;;;;;;7.47;4.30;;;;;;;7.45;64.47;100316.27;1746756;82;21368;-79
2021/05/05 03:49:56;;;;;;;7.47;4.20;;;;;;;7.54;63.09;100318.90;1745876;82;21300;-79
2021/05/05 03:53:02;;;;;;;10.95;4.00;;;;;;;7.64;62.20;100317.45;1747211;82;21303;-79
2021/05/05 03:56:02;;;;;;;6.80;4.10;;;;;;;7.77;62.25;100312.97;1747246;82;21188;-79
2021/05/05 03:59:08;;;;;;;8.88;3.85;;;;;;;7.93;61.63;100316.65;1745722;82;21863;-79
2021/05/05 04:02:14;;;;;;;13.00;4.17;;;;;;;8.14;61.57;100322.27;1745998;82;21430;-79
2021/05/05 04:05:20;;;;;;;103.32;37.17;;;;;;;8.37;61.36;100328.03;1747287;82;21351;-79
2021/05/05 04:08:27;;;;;;;37.17;15.13;;;;;;;8.62;61.18;100334.48;1746856;82;21826;-79
2021/05/05 04:11:33;;;;;;;24.95;7.47;;;;;;;8.85;61.33;100332.03;1747166;82;21846;-79
2021/05/05 04:14:40;;;;;;;18.12;7.12;;;;;;;9.06;60.44;100338.39;1747167;82;21347;-79
2021/05/05 04:18:02;;;;;;;19.67;8.93;;;;;;;9.24;59.71;100330.09;1747139;82;21342;-79
2021/05/05 04:21:26;;;;;;;17.37;7.35;;;;;;;9.40;59.08;100330.11;1745460;82;21523;-79
2021/05/05 04:24:48;;;;;;;13.05;6.22;;;;;;;9.60;58.73;100332.89;1743427;82;21185;-79
2021/05/05 04:27:55;;;;;;;15.23;5.20;;;;;;;9.80;59.00;100342.95;1743214;82;21876;-79
2021/05/05 04:31:01;;;;;;;17.70;5.05;;;;;;;9.98;59.31;100332.71;1743364;82;21284;-79
2021/05/05 04:34:05;;;;;;;9.40;4.85;;;;;;;10.17;59.52;100334.23;1743390;82;21193;-79
2021/05/05 04:37:10;;;;;;;10.45;5.15;;;;;;;10.37;59.57;100336.09;1742481;82;21336;-79
2021/05/05 04:40:17;;;;;;;14.15;4.67;;;;;;;10.56;59.33;100333.48;1741750;82;21234;-79
2021/05/05 04:43:24;;;;;;;8.58;4.70;;;;;;;10.82;58.75;100334.60;1743032;82;21308;-78
2021/05/05 04:46:30;;;;;;;19.40;4.55;;;;;;;11.04;59.08;100341.15;1742867;82;22010;-79
2021/05/05 04:49:35;;;;;;;8.53;3.95;;;;;;;11.25;60.07;100333.18;1741781;82;21472;-79
2021/05/05 04:52:40;;;;;;;13.13;4.35;;;;;;;11.38;59.13;100333.94;1743361;82;21193;-79
2021/05/05 04:55:46;;;;;;;14.90;4.95;;;;;;;11.47;58.77;100336.95;1743362;82;21897;-79
2021/05/05 04:58:52;;;;;;;6.35;4.53;;;;;;;11.62;58.66;100343.02;1743233;82;21882;-79
2021/05/05 05:01:58;;;;;;;9.70;4.37;;;;;;;11.76;57.45;100339.00;1742612;82;21209;-79
2021/05/05 05:05:05;;;;;;;8.55;4.25;;;;;;;11.86;57.68;100337.41;1743517;82;21838;-79
2021/05/05 05:08:10;;;;;;;13.38;5.37;;;;;;;11.96;57.46;100342.11;1745617;82;21355;-79
2021/05/05 05:11:17;;;;;;;6.42;3.98;;;;;;;11.99;57.50;100337.61;1748606;82;21324;-79
2021/05/05 05:14:25;;;;;;;7.67;4.33;;;;;;;12.13;58.01;100340.05;1743194;82;21330;-79
2021/05/05 05:17:30;;;;;;;10.58;4.72;;;;;;;12.25;56.96;100337.73;1742174;82;21318;-80
2021/05/05 05:20:35;;;;;;;9.23;4.92;;;;;;;12.38;57.27;100342.58;1711474;82;21382;-80
2021/05/05 05:23:40;;;;;;;13.43;4.85;;;;;;;12.53;57.02;100338.80;1725547;82;21335;-80
2021/05/05 05:26:46;;;;;;;19.85;5.85;;;;;;;12.71;57.17;100333.47;1758738;81;21386;-80
2021/05/05 05:29:51;;;;;;;12.63;5.05;;;;;;;12.90;57.75;100346.61;1780081;79;21204;-81
2021/05/05 05:32:57;;;;;;;11.95;5.60;;;;;;;13.10;57.19;100336.41;1782718;79;21806;-80
2021/05/05 05:36:05;;;;;;;16.10;5.42;;;;;;;13.34;56.59;100340.22;1768453;79;21196;-81
2021/05/05 05:39:13;;;;;;;15.58;6.67;;;;;;;13.54;55.97;100337.68;1778912;79;21619;-81
2021/05/05 05:42:19;;;;;;;12.63;5.67;;;;;;;13.72;56.06;100338.61;1789198;79;21775;-82
2021/05/05 05:45:26;;;;;;;12.20;5.03;;;;;;;13.91;56.01;100346.20;1792209;79;21307;-82
2021/05/05 05:48:35;;;;;;;15.08;6.78;;;;;;;14.11;55.43;100344.15;1778866;79;21322;-81
2021/05/05 05:51:42;;;;;;;15.38;4.90;;;;;;;14.37;55.37;100342.16;1756185;79;21272;-81
2021/05/05 05:54:50;;;;;;;17.70;4.25;;;;;;;14.64;54.60;100331.69;1751762;79;21902;-81
2021/05/05 05:58:00;;;;;;;15.88;6.30;;;;;;;14.83;54.83;100325.97;1795596;79;21215;-81
2021/05/05 06:01:07;;;;;;;12.85;5.03;;;;;;;14.98;53.54;100334.94;1790959;79;21213;-81
2021/05/05 06:04:15;;;;;;;10.05;4.67;;;;;;;15.09;53.23;100334.34;1787246;79;21300;-81
2021/05/05 06:07:21;;;;;;;12.35;4.05;;;;;;;15.25;53.12;100333.69;1786914;79;21299;-80
2021/05/05 06:10:27;;;;;;;10.53;3.87;;;;;;;15.38;52.28;100324.59;1781153;79;21169;-81
2021/05/05 06:13:36;;;;;;;9.00;3.98;;;;;;;15.50;52.49;100327.08;1785705;79;22479;-81
2021/05/05 06:16:44;;;;;;;5.87;3.33;;;;;;;15.61;52.67;100329.21;1786264;79;21304;-80
2021/05/05 06:19:51;;;;;;;8.10;3.65;;;;;;;15.79;52.42;100332.78;1778197;79;21327;-80
2021/05/05 06:22:56;;;;;;;6.40;3.75;;;;;;;15.91;51.82;100338.02;1781940;79;21787;-80
2021/05/05 06:26:02;;;;;;;8.28;4.37;;;;;;;16.07;51.64;100342.26;1800792;79;22229;-81
2021/05/05 06:29:06;;;;;;;8.35;3.83;;;;;;;16.25;50.96;100334.73;1798682;78;21337;-81
2021/05/05 06:32:13;;;;;;;9.75;3.60;;;;;;;16.33;50.67;100335.91;1800073;78;21160;-81
2021/05/05 06:35:18;;;;;;;6.95;3.72;;;;;;;16.41;51.23;100337.58;1792735;79;21235;-80
2021/05/05 06:38:23;;;;;;;7.45;3.30;;;;;;;16.50;49.11;100339.90;1791266;78;21327;-79
2021/05/05 06:41:29;;;;;;;8.23;3.60;;;;;;;16.63;48.66;100334.89;1793475;79;21338;-80
2021/05/05 06:44:35;;;;;;;6.80;3.72;;;;;;;16.76;49.40;100332.69;1798314;78;21204;-80
2021/05/05 06:47:41;;;;;;;7.42;2.85;;;;;;;16.88;49.26;100336.99;1799043;78;21193;-80
2021/05/05 06:50:46;;;;;;;8.45;2.80;;;;;;;16.97;47.22;100328.78;1803495;79;21378;-80
2021/05/05 06:53:52;;;;;;;11.10;3.47;;;;;;;17.02;46.46;100325.67;1791008;78;21283;-80
2021/05/05 06:57:01;;;;;;;3.95;2.12;;;;;;;17.05;46.32;100329.39;1786950;78;21172;-80
2021/05/05 07:00:07;;;;;;;4.80;2.55;;;;;;;17.09;44.87;100327.89;1762834;80;21193;-80
2021/05/05 07:03:12;;;;;;;9.98;3.70;;;;;;;17.16;45.42;100332.54;1745404;80;21189;-80
2021/05/05 07:06:17;;;;;;;7.47;3.20;;;;;;;17.25;45.41;100327.08;1769823;80;21192;-80
2021/05/05 07:09:22;;;;;;;6.67;2.77;;;;;;;17.38;45.38;100329.25;1746074;81;21292;-80
2021/05/05 07:12:28;;;;;;;3.35;2.27;;;;;;;17.49;44.58;100326.84;1735278;82;22696;-80
2021/05/05 07:15:34;;;;;;;5.78;3.05;;;;;;;17.46;44.08;100317.09;1768757;80;21812;-80
2021/05/05 07:18:40;;;;;;;8.20;2.60;;;;;;;17.46;44.01;100303.27;1766614;80;21810;-79
2021/05/05 07:21:47;;;;;;;6.37;2.50;;;;;;;17.51;44.58;100306.75;1767315;80;21878;-80
2021/05/05 07:24:54;;;;;;;5.83;2.22;;;;;;;17.51;43.73;100308.98;1733215;81;21220;-80
2021/05/05 07:27:59;;;;;;;7.20;2.40;;;;;;;17.48;43.83;100308.03;1709757;82;21316;-80
2021/05/05 07:31:06;;;;;;;8.15;2.30;;;;;;;17.59;44.70;100312.84;1733867;81;21277;-80
2021/05/05 07:34:14;;;;;;;3.80;1.92;;;;;;;17.65;44.69;100307.52;1712693;82;21281;-80
2021/05/05 07:37:37;;;;;;;6.62;2.22;;;;;;;17.74;43.20;100307.60;1704345;82;21389;-80
2021/05/05 07:47:00;;;;;;;3.02;1.80;;;;;;;17.86;43.80;100293.34;1720168;81;21314;-80
2021/05/05 07:50:04;;;;;;;4.47;1.87;;;;;;;17.93;42.73;100296.92;1722133;81;21351;-80
2021/05/05 07:53:09;;;;;;;3.12;1.50;;;;;;;17.98;42.26;100290.17;1716207;81;21666;-80
2021/05/05 07:56:14;;;;;;;5.45;2.10;;;;;;;17.98;41.79;100292.94;1720272;81;21308;-80
2021/05/05 07:59:21;;;;;;;5.40;1.82;;;;;;;18.03;42.61;100285.34;1721287;81;21339;-80
2021/05/05 08:02:26;;;;;;;4.62;2.02;;;;;;;18.17;43.08;100281.93;1717083;81;21191;-80
2021/05/05 08:05:32;;;;;;;4.67;2.08;;;;;;;18.30;43.02;100281.78;1723224;81;21224;-80
2021/05/05 08:08:42;;;;;;;4.25;2.22;;;;;;;18.39;42.10;100272.95;1722569;81;21362;-81
2021/05/05 08:11:45;;;;;;;4.33;1.52;;;;;;;18.44;42.12;100281.11;1716141;81;21373;-81
2021/05/05 08:14:52;;;;;;;6.00;1.32;;;;;;;18.31;41.35;100284.88;1721027;81;21201;-81
2021/05/05 08:17:58;;;;;;;4.35;1.57;;;;;;;18.25;41.27;100278.84;1717053;81;21362;-81
2021/05/05 08:21:00;;;;;;;2.92;1.55;;;;;;;18.29;42.63;100274.02;1705986;82;21355;-80
2021/05/05 08:24:07;;;;;;;8.85;1.60;;;;;;;18.38;41.99;100266.27;1710271;82;21367;-80
2021/05/05 08:27:12;;;;;;;3.47;1.60;;;;;;;18.49;42.10;100269.69;1724329;82;21820;-81
2021/05/05 08:30:20;;;;;;;3.25;1.50;;;;;;;18.57;41.93;100261.05;1730081;82;21319;-81
2021/05/05 08:33:27;;;;;;;3.55;1.40;;;;;;;18.62;42.29;100258.98;1722915;82;21209;-80
2021/05/05 08:36:33;;;;;;;3.85;1.37;;;;;;;18.70;42.76;100255.94;1725920;82;21294;-80
2021/05/05 08:39:40;;;;;;;5.03;1.50;;;;;;;18.78;42.66;100253.41;1713511;82;21185;-81
2021/05/05 08:42:48;;;;;;;4.58;1.55;;;;;;;18.77;41.59;100258.62;1718311;82;21322;-80
2021/05/05 08:45:55;;;;;;;5.53;1.40;;;;;;;18.76;42.19;100259.70;1716231;82;21314;-80
2021/05/05 08:49:01;;;;;;;4.72;1.70;;;;;;;18.83;43.54;100256.33;1716852;82;21181;-79
2021/05/05 08:52:07;;;;;;;7.35;1.32;;;;;;;18.76;40.73;100255.55;1719398;82;21307;-80
2021/05/05 08:55:15;;;;;;;4.83;1.20;;;;;;;18.73;40.90;100256.03;1729342;81;21247;-80
2021/05/05 08:58:22;;;;;;;6.40;1.60;;;;;;;18.81;43.50;100253.77;1760694;81;21300;-80
2021/05/05 09:01:28;;;;;;;5.25;1.52;;;;;;;18.88;42.24;100250.94;1753190;80;21312;-80
2021/05/05 09:04:33;;;;;;;6.58;1.60;;;;;;;18.98;42.75;100249.00;1748676;80;21344;-80
2021/05/05 09:07:38;;;;;;;7.37;1.60;;;;;;;18.99;41.74;100246.53;1753112;80;21295;-80
2021/05/05 09:10:42;;;;;;;4.22;1.40;;;;;;;19.03;43.13;100245.83;1725028;82;21790;-80
2021/05/05 09:13:59;;;;;;;8.93;1.87;;;;;;;19.14;42.29;100238.09;1728705;81;21822;-80
2021/05/05 09:17:04;;;;;;;4.70;1.72;;;;;;;19.14;41.65;100239.48;1734539;81;21585;-80
2021/05/05 09:20:18;;;;;;;8.68;1.40;;;;;;;19.12;41.39;100238.88;1715280;82;21307;-80
2021/05/05 09:23:23;;;;;;;5.50;1.57;;;;;;;19.18;41.28;100233.48;1726395;81;21839;-80
2021/05/05 09:26:42;;;;;;;6.37;2.10;;;;;;;19.20;41.54;100234.95;1690418;82;21894;-80
2021/05/05 09:29:57;;;;;;;5.20;1.72;;;;;;;19.24;42.46;100231.14;1703784;83;21307;-80
2021/05/05 09:33:03;;;;;;;5.75;1.75;;;;;;;19.26;41.95;100231.23;1706024;83;21321;-80
2021/05/05 09:36:15;;;;;;;6.40;1.80;;;;;;;19.22;43.34;100225.00;1698848;83;21724;-80
2021/05/05 09:39:21;;;;;;;7.78;1.70;;;;;;;19.24;41.91;100225.60;1701346;83;21394;-80
2021/05/05 09:42:31;;;;;;;5.40;1.52;;;;;;;19.24;42.26;100224.22;1697330;83;21299;-80
2021/05/05 09:45:40;;;;;;;4.78;1.52;;;;;;;19.25;43.17;100221.23;1701111;83;21189;-80
2021/05/05 09:48:47;;;;;;;8.50;1.90;;;;;;;19.27;42.39;100221.83;1706778;83;21321;-80
2021/05/05 09:51:58;;;;;;;5.25;1.57;;;;;;;19.09;41.66;100219.94;1705082;83;21820;-80
2021/05/05 09:55:06;;;;;;;5.03;1.80;;;;;;;18.94;40.66;100218.12;1704367;82;21260;-80
2021/05/05 09:58:36;;;;;;;6.10;1.35;;;;;;;18.88;41.86;100219.07;1706083;83;21331;-80
2021/05/05 10:01:41;;;;;;;7.90;1.62;;;;;;;18.93;41.90;100214.21;1696656;83;21342;-80
2021/05/05 10:04:47;;;;;;;7.35;1.60;;;;;;;18.88;41.33;100223.23;1715501;83;21354;-80
2021/05/05 10:08:04;;;;;;;7.50;1.72;;;;;;;18.85;42.45;100216.75;1695516;83;21315;-79
2021/05/05 10:11:10;;;;;;;5.42;1.50;;;;;;;19.00;42.12;100215.80;1708817;83;21985;-80
2021/05/05 10:14:17;;;;;;;4.00;1.37;;;;;;;19.25;42.47;100214.30;1701095;83;21834;-80
2021/05/05 10:17:23;;;;;;;5.95;2.08;;;;;;;19.40;41.86;100213.86;1705732;83;21260;-80
2021/05/05 10:20:30;;;;;;;6.33;1.52;;;;;;;19.47;42.32;100214.59;1697261;83;21843;-80
2021/05/05 10:23:36;;;;;;;4.87;1.30;;;;;;;19.58;41.82;100212.41;1698420;83;21362;-80
2021/05/05 10:26:44;;;;;;;5.05;1.57;;;;;;;19.68;40.96;100199.91;1704626;83;21842;-80
2021/05/05 10:29:52;;;;;;;7.60;1.55;;;;;;;19.75;40.78;100202.02;1712549;81;21308;-80
2021/05/05 10:32:58;;;;;;;5.35;1.72;;;;;;;19.72;40.15;100194.19;1715568;82;21304;-80
2021/05/05 10:36:07;;;;;;;2.15;1.20;;;;;;;19.64;40.06;100189.28;1713392;83;21383;-80
2021/05/05 10:39:29;;;;;;;3.72;1.25;;;;;;;19.53;39.31;100184.53;1678068;82;21351;-80
2021/05/05 10:42:36;;;;;;;6.85;1.60;;;;;;;19.39;39.00;100189.98;1801932;79;21808;-80
2021/05/05 10:45:49;;;;;;;3.80;1.30;;;;;;;19.32;39.83;100178.14;1764322;81;21201;-80
2021/05/05 10:49:09;;;;;;;3.02;1.20;;;;;;;19.34;40.67;100180.15;1726982;82;21328;-80
2021/05/05 10:52:15;;;;;;;5.47;1.98;;;;;;;19.43;41.03;100185.63;1711948;82;21866;-80
2021/05/05 10:55:23;;;;;;;4.20;1.65;;;;;;;19.42;40.85;100179.78;1723008;82;21327;-80
2021/05/05 10:58:37;;;;;;;2.87;1.55;;;;;;;19.33;40.23;100171.50;1732094;82;21296;-80
2021/05/05 11:01:50;;;;;;;3.98;1.10;;;;;;;19.22;40.25;100172.33;1734733;82;21289;-80
2021/05/05 11:05:18;;;;;;;3.25;1.20;;;;;;;19.14;40.22;100177.11;1769056;79;21312;-80
2021/05/05 11:08:34;;;;;;;4.17;1.22;;;;;;;19.19;41.64;100174.17;1752688;80;21787;-80
2021/05/05 11:11:48;;;;;;;4.65;1.25;;;;;;;19.26;40.88;100159.14;1749925;80;21197;-80
2021/05/05 11:14:55;;;;;;;2.47;1.57;;;;;;;19.35;40.98;100158.27;1761196;81;21308;-80
2021/05/05 11:18:01;;;;;;;2.00;1.40;;;;;;;19.46;40.54;100150.49;1796133;79;21295;-79
2021/05/05 11:21:14;;;;;;;2.27;1.30;;;;;;;19.52;40.01;100154.23;1776481;79;21733;-79
2021/05/05 11:24:37;;;;;;;3.77;1.25;;;;;;;19.50;39.28;100148.09;1778117;79;21224;-79
2021/05/05 11:27:55;;;;;;;2.98;1.40;;;;;;;19.47;40.44;100146.63;1794032;79;21807;-79
2021/05/05 11:31:00;;;;;;;2.40;1.47;;;;;;;19.50;39.89;100145.32;1762429;79;21315;-80
2021/05/05 11:34:07;;;;;;;3.33;1.50;;;;;;;19.48;39.04;100137.25;1758884;80;21854;-79
2021/05/05 11:37:17;;;;;;;1.95;1.15;;;;;;;19.36;39.43;100142.77;1760346;81;21334;-80
2021/05/05 11:40:22;;;;;;;5.23;1.40;;;;;;;19.27;39.40;100129.48;1761100;81;21377;-80
2021/05/05 11:43:29;;;;;;;2.83;1.42;;;;;;;19.25;39.83;100131.11;1760681;81;21861;-80
2021/05/05 11:46:36;;;;;;;2.65;1.30;;;;;;;19.25;39.67;100123.34;1755250;81;21291;-80
2021/05/05 11:49:47;;;;;;;2.30;1.27;;;;;;;19.20;39.70;100123.21;1756041;81;21165;-80
2021/05/05 11:52:57;;;;;;;5.55;1.50;;;;;;;19.20;39.89;100126.83;1751680;80;21177;-79
2021/05/05 11:56:04;;;;;;;2.17;1.30;;;;;;;19.27;39.88;100126.70;1748589;81;21216;-80
2021/05/05 11:59:09;;;;;;;6.05;1.20;;;;;;;19.36;40.21;100121.96;1743809;81;21294;-80
2021/05/05 12:02:15;;;;;;;1.32;0.90;;;;;;;19.40;40.08;100122.34;1753512;81;21427;-81
2021/05/05 12:05:38;;;;;;;2.17;1.12;;;;;;;19.44;40.16;100111.62;1756768;81;21307;-80
2021/05/05 12:08:46;;;;;;;8.30;1.50;;;;;;;19.37;40.03;100115.32;1758261;80;21311;-80
2021/05/05 12:11:51;;;;;;;5.55;1.30;;;;;;;19.33;39.95;100111.34;1712704;81;21283;-80
2021/05/05 12:15:04;;;;;;;3.52;1.70;;;;;;;19.31;39.80;100111.28;1755623;81;21177;-80
2021/05/05 12:18:10;;;;;;;10.88;1.30;;;;;;;19.24;39.83;100106.38;1756612;81;21288;-80
2021/05/05 12:21:21;;;;;;;2.15;1.30;;;;;;;19.22;40.58;100109.94;1755914;81;21327;-80
2021/05/05 12:24:27;;;;;;;6.25;1.47;;;;;;;19.27;40.22;100104.52;1752779;80;21236;-80
2021/05/05 12:27:33;;;;;;;5.80;1.50;;;;;;;19.27;40.00;100104.52;1757480;81;21290;-80
2021/05/05 12:31:00;;;;;;;6.62;2.00;;;;;;;19.26;40.22;100111.16;1766186;79;21280;-80
2021/05/05 12:34:07;;;;;;;3.62;1.30;;;;;;;19.25;40.08;100102.55;1790757;79;21307;-80
2021/05/05 12:37:13;;;;;;;6.55;1.47;;;;;;;19.27;39.56;100092.05;1783666;79;21886;-81
2021/05/05 12:40:20;;;;;;;5.62;1.60;;;;;;;19.24;39.12;100093.36;1784682;79;21328;-80
2021/05/05 12:43:34;;;;;;;3.47;1.57;;;;;;;19.16;39.39;100088.17;1788923;79;21750;-80
2021/05/05 12:46:56;;;;;;;9.58;1.90;;;;;;;19.15;40.18;100089.27;1787385;79;21331;-80
2021/05/05 12:50:05;;;;;;;7.62;1.75;;;;;;;19.20;40.25;100085.23;1781940;79;21277;-80
2021/05/05 12:53:11;;;;;;;6.33;1.67;;;;;;;19.25;39.34;100082.59;1791127;79;21312;-80
2021/05/05 12:56:17;;;;;;;4.70;1.30;;;;;;;19.33;39.48;100082.77;1786974;79;21319;-79
2021/05/05 12:59:28;;;;;;;5.37;1.50;;;;;;;19.33;39.20;100078.60;1779192;79;21141;-80
2021/05/05 13:02:35;;;;;;;9.15;1.80;;;;;;;19.23;39.39;100077.81;1751266;81;21283;-79
2021/05/05 13:06:02;;;;;;;7.37;1.60;;;;;;;19.12;39.44;100082.80;1751850;81;21175;-79
2021/05/05 13:09:24;;;;;;;10.43;1.65;;;;;;;19.09;40.04;100081.34;1753405;80;21603;-80
2021/05/05 13:12:34;;;;;;;4.53;1.52;;;;;;;19.13;40.08;100073.39;1790337;79;21328;-80
2021/05/05 13:19:18;;;;;;;3.90;1.47;;;;;;;19.10;40.17;100073.34;1792128;79;21161;-79
2021/05/05 13:32:47;;;;;;;3.80;1.30;;;;;;;18.89;39.51;100058.64;1788894;80;21299;-79
2021/05/05 13:36:00;;;;;;;11.90;1.90;;;;;;;18.82;39.94;100055.11;1797869;79;21391;-79
2021/05/05 13:39:06;;;;;;;4.17;1.67;;;;;;;18.74;40.08;100046.62;1795129;79;21280;-80
2021/05/05 13:42:14;;;;;;;4.28;1.20;;;;;;;18.64;39.76;100046.31;1740522;81;21209;-79
2021/05/05 13:45:20;;;;;;;6.22;1.57;;;;;;;18.51;40.31;100045.95;1750274;80;21351;-79
2021/05/05 13:48:40;;;;;;;2.40;1.17;;;;;;;18.37;40.01;100046.67;1766531;80;21299;-79
2021/05/05 13:51:37;;;;;;;5.37;1.40;;;;;;;18.27;40.35;100044.17;1746508;82;21787;-79
2021/05/05 13:54:43;;;;;;;5.87;1.55;;;;;;;18.19;40.87;100042.55;1760317;80;21204;-79
2021/05/05 13:57:48;;;;;;;5.00;1.37;;;;;;;18.20;41.73;100042.85;1745772;80;22457;-79
2021/05/05 14:00:55;;;;;;;4.35;1.40;;;;;;;18.21;41.15;100041.80;1755472;80;21807;-79
2021/05/05 14:04:00;;;;;;;8.58;1.67;;;;;;;18.19;40.56;100041.71;1746496;81;21342;-79
2021/05/05 14:07:08;;;;;;;7.80;1.77;;;;;;;18.15;40.65;100041.33;1778576;80;21339;-79
2021/05/05 14:10:16;;;;;;;4.17;1.12;;;;;;;18.10;41.24;100038.41;1773099;80;21204;-80
2021/05/05 14:13:22;;;;;;;5.90;1.45;;;;;;;18.04;41.32;100033.27;1777347;80;21850;-79
2021/05/05 14:16:27;;;;;;;2.20;1.20;;;;;;;17.97;41.70;100033.87;1777627;80;21826;-79
2021/05/05 14:19:34;;;;;;;3.05;1.22;;;;;;;17.91;41.35;100019.59;1778885;80;21838;-79
2021/05/05 14:22:40;;;;;;;4.65;1.45;;;;;;;17.86;41.57;100023.05;1778716;80;21744;-79
2021/05/05 14:25:49;;;;;;;8.03;1.40;;;;;;;17.84;41.75;100023.83;1779108;80;21878;-79
2021/05/05 14:28:56;;;;;;;4.35;1.30;;;;;;;17.84;42.61;100020.23;1777016;80;21323;-79
2021/05/05 14:32:01;;;;;;;4.10;1.50;;;;;;;17.83;42.75;100019.89;1777883;80;21750;-79
2021/05/05 14:35:08;;;;;;;4.42;1.37;;;;;;;17.81;43.14;100011.83;1692403;85;21319;-79
2021/05/05 14:38:19;;;;;;;8.28;1.80;;;;;;;17.78;43.02;100011.44;1743097;82;21351;-79
2021/05/05 14:41:27;;;;;;;3.35;1.32;;;;;;;17.70;43.12;100015.34;1744691;82;21339;-79
2021/05/05 14:44:34;;;;;;;14.83;1.50;;;;;;;17.61;43.67;100019.48;1743578;82;21217;-79
2021/05/05 14:50:56;;;;;;;14.05;1.62;;;;;;;17.45;44.64;100016.77;1743658;82;21823;-79
2021/05/05 14:54:03;;;;;;;3.62;1.77;;;;;;;17.35;44.03;100022.81;1744961;82;21871;-79
2021/05/05 14:57:09;;;;;;;13.65;2.47;;;;;;;17.29;44.59;100021.52;1744045;82;21906;-79